createdAt,value
2018-03-20T00:00:13.539Z,-3.09
2018-03-20T00:01:13.510Z,-3.16
2018-03-20T00:02:13.480Z,-3.10
2018-03-20T00:03:13.457Z,-3.13
2018-03-20T00:04:13.432Z,-3.01
2018-03-20T00:05:13.434Z,-3.13
2018-03-20T00:06:13.363Z,-3.04
2018-03-20T00:07:13.327Z,-2.89
2018-03-20T00:08:13.310Z,-2.95
2018-03-20T00:09:13.283Z,-2.86
2018-03-20T00:10:13.236Z,-2.73
2018-03-20T00:11:13.219Z,-2.66
2018-03-20T00:12:13.194Z,-2.48
2018-03-20T00:13:13.152Z,-2.45
2018-03-20T00:14:13.129Z,-2.48
2018-03-20T00:15:13.088Z,-2.65
2018-03-20T00:16:13.054Z,-2.70
2018-03-20T00:17:13.033Z,-2.65
2018-03-20T00:18:13.001Z,-2.53
2018-03-20T00:19:12.986Z,-2.65
2018-03-20T00:20:12.955Z,-2.69
2018-03-20T00:21:12.912Z,-2.76
2018-03-20T00:22:12.877Z,-2.77
2018-03-20T00:23:12.845Z,-2.59
2018-03-20T00:24:12.817Z,-2.63
2018-03-20T00:25:12.785Z,-2.63
2018-03-20T00:26:12.757Z,-2.56
2018-03-20T00:27:12.739Z,-2.60
2018-03-20T00:28:12.701Z,-2.55
2018-03-20T00:29:12.679Z,-2.65
2018-03-20T00:30:12.650Z,-2.88
2018-03-20T00:31:12.616Z,-2.91
2018-03-20T00:32:12.573Z,-2.83
2018-03-20T00:33:12.547Z,-2.95
2018-03-20T00:34:12.527Z,-2.89
2018-03-20T00:35:12.491Z,-2.94
2018-03-20T00:36:12.466Z,-2.95
2018-03-20T00:37:12.462Z,-2.84
2018-03-20T00:38:12.397Z,-2.77
2018-03-20T00:39:12.375Z,-2.78
2018-03-20T00:40:12.335Z,-2.74
2018-03-20T00:41:12.317Z,-2.69
2018-03-20T00:42:12.288Z,-2.66
2018-03-20T00:43:12.257Z,-2.52
2018-03-20T00:44:12.216Z,-2.45
2018-03-20T00:45:12.206Z,-2.30
2018-03-20T00:46:12.167Z,-2.28
2018-03-20T00:47:12.135Z,-2.15
2018-03-20T00:48:12.111Z,-2.13
2018-03-20T00:49:12.077Z,-2.15
2018-03-20T00:50:12.037Z,-2.02
2018-03-20T00:51:12.018Z,-1.97
2018-03-20T00:52:11.989Z,-1.87
2018-03-20T00:53:11.946Z,-1.82
2018-03-20T00:54:11.930Z,-1.71
2018-03-20T00:55:11.887Z,-1.59
2018-03-20T00:56:11.859Z,-1.56
2018-03-20T00:57:11.831Z,-1.47
2018-03-20T00:58:11.799Z,-1.29
2018-03-20T00:59:11.816Z,-1.32
2018-03-20T01:00:11.752Z,-1.29
2018-03-20T01:01:11.711Z,-1.20
2018-03-20T01:02:11.695Z,-1.25
2018-03-20T01:03:11.662Z,-1.11
2018-03-20T01:04:11.622Z,-1.11
2018-03-20T01:05:11.605Z,-1.11
2018-03-20T01:06:11.565Z,-1.15
2018-03-20T01:07:11.533Z,-1.05
2018-03-20T01:08:11.505Z,-1.14
2018-03-20T01:09:11.476Z,-1.04
2018-03-20T01:10:11.447Z,-0.97
2018-03-20T01:11:11.437Z,-0.94
2018-03-20T01:12:11.388Z,-0.94
2018-03-20T01:13:11.361Z,-0.83
2018-03-20T01:14:11.330Z,-0.80
2018-03-20T01:15:11.318Z,-0.91
2018-03-20T01:16:11.283Z,-0.96
2018-03-20T01:17:11.254Z,-0.93
2018-03-20T01:18:11.213Z,-0.93
2018-03-20T01:19:11.189Z,-0.82
2018-03-20T01:20:11.166Z,-0.72
2018-03-20T01:21:11.131Z,-0.77
2018-03-20T01:22:11.109Z,-0.77
2018-03-20T01:23:11.071Z,-0.70
2018-03-20T01:24:11.038Z,-0.77
2018-03-20T01:25:11.010Z,-0.74
2018-03-20T01:26:10.999Z,-0.75
2018-03-20T01:27:10.963Z,-0.70
2018-03-20T01:28:10.925Z,-0.64
2018-03-20T01:29:10.907Z,-0.68
2018-03-20T01:30:10.878Z,-0.64
2018-03-20T01:31:10.842Z,-0.67
2018-03-20T01:32:10.811Z,-0.70
2018-03-20T01:33:10.796Z,-0.68
2018-03-20T01:34:10.753Z,-0.68
2018-03-20T01:35:10.737Z,-0.65
2018-03-20T01:36:10.692Z,-0.62
2018-03-20T01:37:10.667Z,-0.67
2018-03-20T01:38:10.634Z,-0.57
2018-03-20T01:39:10.619Z,-0.57
2018-03-20T01:40:10.577Z,-0.54
2018-03-20T01:41:10.561Z,-0.59
2018-03-20T01:42:10.524Z,-0.52
2018-03-20T01:43:10.507Z,-0.54
2018-03-20T01:44:10.474Z,-0.47
2018-03-20T01:45:10.432Z,-0.35
2018-03-20T01:46:10.415Z,-0.41
2018-03-20T01:47:10.376Z,-0.39
2018-03-20T01:48:10.348Z,-0.29
2018-03-20T01:49:10.322Z,-0.34
2018-03-20T01:50:10.290Z,-0.34
2018-03-20T01:51:10.262Z,-0.34
2018-03-20T01:52:10.230Z,-0.28
2018-03-20T01:53:10.216Z,-0.31
2018-03-20T01:54:10.177Z,-0.35
2018-03-20T01:55:10.146Z,-0.35
2018-03-20T01:56:10.128Z,-0.26
2018-03-20T01:57:10.099Z,-0.31
2018-03-20T01:58:10.063Z,-0.28
2018-03-20T01:59:10.031Z,-0.32
2018-03-20T02:00:10.018Z,-0.29
2018-03-20T02:01:09.976Z,-0.31
2018-03-20T02:02:09.959Z,-0.29
2018-03-20T02:03:09.926Z,-0.35
2018-03-20T02:04:09.888Z,-0.34
2018-03-20T02:05:09.861Z,-0.21
2018-03-20T02:06:09.839Z,-0.17
2018-03-20T02:07:12.490Z,-0.20
2018-03-20T02:08:09.771Z,-0.32
2018-03-20T02:09:09.758Z,-0.18
2018-03-20T02:10:09.714Z,-0.29
2018-03-20T02:11:09.686Z,-0.28
2018-03-20T02:12:09.659Z,-0.21
2018-03-20T02:13:09.633Z,-0.26
2018-03-20T02:14:09.604Z,-0.13
2018-03-20T02:15:09.572Z,-0.25
2018-03-20T02:16:09.543Z,-0.26
2018-03-20T02:17:09.515Z,-0.18
2018-03-20T02:18:09.485Z,-0.15
2018-03-20T02:19:09.459Z,-0.11
2018-03-20T02:20:09.426Z,-0.26
2018-03-20T02:21:09.398Z,-0.20
2018-03-20T02:22:09.373Z,-0.25
2018-03-20T02:23:09.341Z,-0.18
2018-03-20T02:24:09.311Z,-0.21
2018-03-20T02:25:09.288Z,-0.21
2018-03-20T02:26:09.258Z,-0.21
2018-03-20T02:27:09.230Z,-0.20
2018-03-20T02:28:09.203Z,-0.17
2018-03-20T02:29:09.173Z,-0.31
2018-03-20T02:30:09.147Z,-0.20
2018-03-20T02:31:09.112Z,-0.29
2018-03-20T02:32:09.091Z,-0.20
2018-03-20T02:33:09.056Z,-0.18
2018-03-20T02:34:09.030Z,-0.21
2018-03-20T02:35:08.997Z,-0.20
2018-03-20T02:36:08.970Z,-0.18
2018-03-20T02:37:08.937Z,-0.23
2018-03-20T02:38:08.914Z,-0.17
2018-03-20T02:39:08.887Z,-0.21
2018-03-20T02:40:08.857Z,-0.17
2018-03-20T02:41:08.836Z,-0.11
2018-03-20T02:42:08.801Z,-0.10
2018-03-20T02:43:08.774Z,-0.07
2018-03-20T02:44:08.738Z,-0.08
2018-03-20T02:45:08.715Z,-0.06
2018-03-20T02:46:08.681Z,-0.10
2018-03-20T02:47:08.662Z,-0.13
2018-03-20T02:48:08.626Z,-0.18
2018-03-20T02:49:08.599Z,-0.13
2018-03-20T02:50:08.582Z,-0.03
2018-03-20T02:51:08.561Z,-0.11
2018-03-20T02:52:08.514Z,-0.23
2018-03-20T02:53:08.484Z,-0.17
2018-03-20T02:54:08.462Z,-0.20
2018-03-20T02:55:08.429Z,-0.20
2018-03-20T02:56:08.399Z,-0.17
2018-03-20T02:57:08.376Z,-0.20
2018-03-20T02:58:08.341Z,-0.18
2018-03-20T02:59:08.313Z,-0.11
2018-03-20T03:00:08.293Z,-0.17
2018-03-20T03:01:08.274Z,-0.31
2018-03-20T03:02:08.229Z,-0.29
2018-03-20T03:03:08.201Z,-0.26
2018-03-20T03:04:08.175Z,-0.26
2018-03-20T03:05:08.154Z,-0.31
2018-03-20T03:06:08.113Z,-0.28
2018-03-20T03:07:08.080Z,-0.34
2018-03-20T03:08:08.067Z,-0.31
2018-03-20T03:09:08.021Z,-0.47
2018-03-20T03:10:07.997Z,-0.34
2018-03-20T03:11:07.970Z,-0.41
2018-03-20T03:12:07.937Z,-0.32
2018-03-20T03:13:07.910Z,-0.39
2018-03-20T03:14:07.884Z,-0.35
2018-03-20T03:15:07.862Z,-0.49
2018-03-20T03:16:07.823Z,-0.49
2018-03-20T03:17:07.795Z,-0.54
2018-03-20T03:18:07.767Z,-0.53
2018-03-20T03:19:07.739Z,-0.54
2018-03-20T03:20:07.708Z,-0.54
2018-03-20T03:21:07.682Z,-0.57
2018-03-20T03:22:07.653Z,-0.44
2018-03-20T03:23:07.622Z,-0.47
2018-03-20T03:24:07.592Z,-0.38
2018-03-20T03:25:07.569Z,-0.35
2018-03-20T03:26:07.539Z,-0.32
2018-03-20T03:27:07.508Z,-0.31
2018-03-20T03:28:07.481Z,-0.34
2018-03-20T03:29:07.451Z,-0.29
2018-03-20T03:30:07.423Z,-0.31
2018-03-20T03:31:07.391Z,-0.21
2018-03-20T03:32:07.366Z,-0.23
2018-03-20T03:33:07.331Z,-0.14
2018-03-20T03:34:07.306Z,-0.17
2018-03-20T03:35:07.275Z,-0.21
2018-03-20T03:36:07.243Z,-0.10
2018-03-20T03:37:07.225Z,-0.13
2018-03-20T03:38:07.191Z,-0.08
2018-03-20T03:39:07.156Z,0.00
2018-03-20T03:40:07.134Z,0.04
2018-03-20T03:41:07.102Z,0.04
2018-03-20T03:42:07.075Z,0.03
2018-03-20T03:43:07.047Z,0.05
2018-03-20T03:44:07.018Z,0.05
2018-03-20T03:45:07.025Z,0.07
2018-03-20T03:46:06.962Z,0.07
2018-03-20T03:47:06.939Z,0.15
2018-03-20T03:48:06.911Z,0.12
2018-03-20T03:49:06.872Z,0.05
2018-03-20T03:50:06.845Z,0.04
2018-03-20T03:51:06.814Z,0.05
2018-03-20T03:52:06.783Z,0.08
2018-03-20T03:53:06.753Z,0.15
2018-03-20T03:54:06.733Z,0.05
2018-03-20T03:55:06.697Z,0.16
2018-03-20T03:56:06.670Z,0.21
2018-03-20T03:57:06.648Z,0.15
2018-03-20T03:58:06.614Z,0.26
2018-03-20T03:59:06.585Z,0.25
2018-03-20T04:00:06.558Z,0.19
2018-03-20T04:01:06.530Z,0.26
2018-03-20T04:02:06.499Z,0.19
2018-03-20T04:03:06.466Z,0.37
2018-03-20T04:04:06.440Z,0.34
2018-03-20T04:05:06.414Z,0.29
2018-03-20T04:06:06.387Z,0.32
2018-03-20T04:07:06.351Z,0.31
2018-03-20T04:08:06.323Z,0.36
2018-03-20T04:09:06.296Z,0.23
2018-03-20T04:10:06.280Z,0.31
2018-03-20T04:11:06.241Z,0.32
2018-03-20T04:12:06.212Z,0.37
2018-03-20T04:13:06.181Z,0.41
2018-03-20T04:14:06.171Z,0.34
2018-03-20T04:15:06.124Z,0.41
2018-03-20T04:16:06.099Z,0.39
2018-03-20T04:17:06.069Z,0.36
2018-03-20T04:18:06.037Z,0.47
2018-03-20T04:19:06.018Z,0.36
2018-03-20T04:20:05.983Z,0.47
2018-03-20T04:21:05.953Z,0.47
2018-03-20T04:22:05.924Z,0.47
2018-03-20T04:23:05.897Z,0.46
2018-03-20T04:24:05.868Z,0.50
2018-03-20T04:25:05.841Z,0.44
2018-03-20T04:26:05.811Z,0.47
2018-03-20T04:27:05.783Z,0.44
2018-03-20T04:28:05.754Z,0.56
2018-03-20T04:29:05.721Z,0.55
2018-03-20T04:30:05.712Z,0.55
2018-03-20T04:31:05.664Z,0.58
2018-03-20T04:32:05.635Z,0.55
2018-03-20T04:33:05.616Z,0.49
2018-03-20T04:34:05.583Z,0.56
2018-03-20T04:35:05.555Z,0.62
2018-03-20T04:36:05.525Z,0.62
2018-03-20T04:37:05.493Z,0.55
2018-03-20T04:38:05.467Z,0.58
2018-03-20T04:39:05.450Z,0.70
2018-03-20T04:40:05.413Z,0.73
2018-03-20T04:41:05.381Z,0.66
2018-03-20T04:42:05.359Z,0.78
2018-03-20T04:43:05.324Z,0.81
2018-03-20T04:44:05.293Z,0.81
2018-03-20T04:45:05.271Z,0.73
2018-03-20T04:46:05.242Z,0.87
2018-03-20T04:47:05.209Z,0.84
2018-03-20T04:48:05.218Z,0.88
2018-03-20T04:49:05.154Z,0.88
2018-03-20T04:50:05.129Z,0.92
2018-03-20T04:51:05.100Z,0.91
2018-03-20T04:52:05.075Z,0.99
2018-03-20T04:53:05.045Z,0.87
2018-03-20T04:54:05.015Z,0.99
2018-03-20T04:55:04.992Z,0.92
2018-03-20T04:56:04.956Z,0.92
2018-03-20T04:57:04.932Z,0.95
2018-03-20T04:58:04.898Z,0.91
2018-03-20T04:59:04.875Z,0.96
2018-03-20T05:00:04.848Z,0.98
2018-03-20T05:01:04.816Z,0.94
2018-03-20T05:02:04.786Z,0.98
2018-03-20T05:03:04.754Z,1.04
2018-03-20T05:04:04.736Z,1.02
2018-03-20T05:05:04.711Z,0.99
2018-03-20T05:06:04.671Z,1.08
2018-03-20T05:07:04.646Z,1.02
2018-03-20T05:08:04.619Z,1.01
2018-03-20T05:09:04.592Z,1.06
2018-03-20T05:10:04.557Z,1.06
2018-03-20T05:11:04.527Z,1.12
2018-03-20T05:12:04.513Z,1.12
2018-03-20T05:13:04.476Z,1.08
2018-03-20T05:14:04.460Z,1.10
2018-03-20T05:15:04.418Z,1.05
2018-03-20T05:16:04.386Z,1.12
2018-03-20T05:17:04.376Z,1.06
2018-03-20T05:18:04.333Z,1.12
2018-03-20T05:19:04.302Z,1.12
2018-03-20T05:20:04.301Z,1.06
2018-03-20T05:21:04.242Z,1.08
2018-03-20T05:22:04.216Z,1.12
2018-03-20T05:23:04.245Z,1.17
2018-03-20T05:24:04.161Z,1.12
2018-03-20T05:25:04.133Z,1.14
2018-03-20T05:26:04.108Z,1.10
2018-03-20T05:27:04.074Z,1.10
2018-03-20T05:28:04.049Z,1.12
2018-03-20T05:29:04.023Z,1.13
2018-03-20T05:30:03.990Z,1.13
2018-03-20T05:31:03.964Z,1.17
2018-03-20T05:32:03.940Z,1.14
2018-03-20T05:33:03.906Z,1.19
2018-03-20T05:34:03.885Z,1.12
2018-03-20T05:35:03.851Z,1.14
2018-03-20T05:36:03.831Z,1.13
2018-03-20T05:37:03.795Z,1.16
2018-03-20T05:38:03.769Z,1.19
2018-03-20T05:39:03.735Z,1.20
2018-03-20T05:40:03.710Z,1.20
2018-03-20T05:41:03.687Z,1.19
2018-03-20T05:42:03.655Z,1.24
2018-03-20T05:43:03.633Z,1.24
2018-03-20T05:44:03.596Z,1.32
2018-03-20T05:45:03.572Z,1.22
2018-03-20T05:46:03.556Z,1.31
2018-03-20T05:47:03.521Z,1.32
2018-03-20T05:48:03.489Z,1.37
2018-03-20T05:49:03.461Z,1.32
2018-03-20T05:50:03.433Z,1.40
2018-03-20T05:51:03.401Z,1.38
2018-03-20T05:52:03.375Z,1.40
2018-03-20T05:53:03.342Z,1.42
2018-03-20T05:54:03.318Z,1.35
2018-03-20T05:55:03.294Z,1.45
2018-03-20T05:56:03.258Z,1.32
2018-03-20T05:57:03.231Z,1.40
2018-03-20T05:58:03.209Z,1.35
2018-03-20T05:59:03.176Z,1.44
2018-03-20T06:00:03.149Z,1.40
2018-03-20T06:01:03.118Z,1.34
2018-03-20T06:02:03.094Z,1.41
2018-03-20T06:03:03.081Z,1.41
2018-03-20T06:04:03.044Z,1.50
2018-03-20T06:05:03.010Z,1.44
2018-03-20T06:06:02.978Z,1.44
2018-03-20T06:07:02.962Z,1.42
2018-03-20T06:08:02.924Z,1.50
2018-03-20T06:09:02.899Z,1.49
2018-03-20T06:10:02.871Z,1.50
2018-03-20T06:11:02.839Z,1.56
2018-03-20T06:12:02.811Z,1.56
2018-03-20T06:13:02.789Z,1.56
2018-03-20T06:14:02.758Z,1.60
2018-03-20T06:15:02.733Z,1.60
2018-03-20T06:16:02.716Z,1.68
2018-03-20T06:17:02.671Z,1.66
2018-03-20T06:18:02.652Z,1.66
2018-03-20T06:19:02.618Z,1.70
2018-03-20T06:20:02.593Z,1.74
2018-03-20T06:21:02.563Z,1.76
2018-03-20T06:22:02.530Z,1.77
2018-03-20T06:23:02.513Z,1.77
2018-03-20T06:24:02.481Z,1.73
2018-03-20T06:25:02.489Z,1.81
2018-03-20T06:26:02.423Z,1.80
2018-03-20T06:27:02.405Z,1.73
2018-03-20T06:28:02.370Z,1.78
2018-03-20T06:29:02.338Z,1.74
2018-03-20T06:30:02.320Z,1.70
2018-03-20T06:31:02.286Z,1.73
2018-03-20T06:32:02.258Z,1.66
2018-03-20T06:33:02.224Z,1.77
2018-03-20T06:34:02.208Z,1.76
2018-03-20T06:35:02.179Z,1.87
2018-03-20T06:36:02.150Z,1.84
2018-03-20T06:37:02.114Z,1.89
2018-03-20T06:38:02.144Z,1.81
2018-03-20T06:39:02.062Z,1.85
2018-03-20T06:40:02.033Z,1.97
2018-03-20T06:41:02.002Z,1.89
2018-03-20T06:42:01.977Z,1.97
2018-03-20T06:43:01.946Z,1.95
2018-03-20T06:44:01.919Z,2.04
2018-03-20T06:45:01.907Z,1.97
2018-03-20T06:46:01.886Z,1.92
2018-03-20T06:47:01.840Z,2.02
2018-03-20T06:48:01.814Z,2.14
2018-03-20T06:49:01.796Z,2.14
2018-03-20T06:50:01.757Z,2.10
2018-03-20T06:51:01.762Z,2.17
2018-03-20T06:52:01.703Z,2.17
2018-03-20T06:53:01.675Z,2.17
2018-03-20T06:54:01.660Z,2.18
2018-03-20T06:55:01.623Z,2.15
2018-03-20T06:56:01.591Z,2.11
2018-03-20T06:57:01.569Z,2.14
2018-03-20T06:58:01.559Z,2.15
2018-03-20T06:59:01.509Z,2.13
2018-03-20T07:00:01.488Z,2.18
2018-03-20T07:01:01.461Z,2.22
2018-03-20T07:02:01.427Z,2.25
2018-03-20T07:03:01.400Z,2.26
2018-03-20T07:04:01.380Z,2.25
2018-03-20T07:05:01.345Z,2.26
2018-03-20T07:06:01.334Z,2.24
2018-03-20T07:07:01.292Z,2.29
2018-03-20T07:08:01.263Z,2.26
2018-03-20T07:09:01.237Z,2.32
2018-03-20T07:10:01.223Z,2.31
2018-03-20T07:11:01.180Z,2.32
2018-03-20T07:12:01.171Z,2.32
2018-03-20T07:13:01.128Z,2.31
2018-03-20T07:14:01.104Z,2.26
2018-03-20T07:15:01.081Z,2.25
2018-03-20T07:16:01.047Z,2.29
2018-03-20T07:17:01.021Z,2.11
2018-03-20T07:18:01.008Z,2.26
2018-03-20T07:19:00.968Z,2.26
2018-03-20T07:20:00.943Z,2.28
2018-03-20T07:21:00.913Z,2.31
2018-03-20T07:22:00.889Z,2.22
2018-03-20T07:23:00.874Z,2.26
2018-03-20T07:24:00.836Z,2.29
2018-03-20T07:25:00.832Z,2.31
2018-03-20T07:26:00.823Z,2.24
2018-03-20T07:27:00.751Z,2.24
2018-03-20T07:28:00.726Z,2.31
2018-03-20T07:29:00.703Z,2.32
2018-03-20T07:30:00.669Z,2.31
2018-03-20T07:31:00.650Z,2.32
2018-03-20T07:32:00.623Z,2.35
2018-03-20T07:33:00.592Z,2.44
2018-03-20T07:34:00.564Z,2.43
2018-03-20T07:35:00.545Z,2.44
2018-03-20T07:36:00.510Z,2.54
2018-03-20T07:37:00.487Z,2.53
2018-03-20T07:38:00.453Z,2.53
2018-03-20T07:39:00.423Z,2.65
2018-03-20T07:40:00.402Z,2.60
2018-03-20T07:41:00.376Z,2.60
2018-03-20T07:42:00.352Z,2.64
2018-03-20T07:43:00.321Z,2.61
2018-03-20T07:44:00.298Z,2.68
2018-03-20T07:45:00.266Z,2.72
2018-03-20T07:46:00.244Z,2.69
2018-03-20T07:47:00.215Z,2.69
2018-03-20T07:48:00.188Z,2.79
2018-03-20T07:49:00.162Z,2.80
2018-03-20T07:50:00.137Z,2.83
2018-03-20T07:51:00.117Z,2.77
2018-03-20T07:52:00.085Z,2.89
2018-03-20T07:53:00.061Z,2.77
2018-03-20T07:54:00.031Z,2.82
2018-03-20T07:55:00.004Z,2.82
2018-03-20T07:55:59.977Z,2.83
2018-03-20T07:56:59.950Z,2.85
2018-03-20T07:57:59.927Z,2.83
2018-03-20T07:58:59.904Z,2.77
2018-03-20T07:59:59.868Z,2.77
2018-03-20T08:00:59.845Z,2.77
2018-03-20T08:01:59.822Z,2.74
2018-03-20T08:02:59.792Z,2.64
2018-03-20T08:03:59.778Z,2.62
2018-03-20T08:04:59.744Z,2.64
2018-03-20T08:05:59.715Z,2.61
2018-03-20T08:06:59.723Z,2.64
2018-03-20T08:07:59.701Z,2.62
2018-03-20T08:08:59.662Z,2.56
2018-03-20T08:09:59.604Z,2.56
2018-03-20T08:10:59.579Z,2.53
2018-03-20T08:11:59.563Z,2.56
2018-03-20T08:12:59.529Z,2.71
2018-03-20T08:13:59.504Z,2.69
2018-03-20T08:14:59.471Z,2.60
2018-03-20T08:15:59.441Z,2.61
2018-03-20T08:16:59.422Z,2.60
2018-03-20T08:17:59.398Z,2.67
2018-03-20T08:18:59.366Z,2.68
2018-03-20T08:19:59.340Z,2.72
2018-03-20T08:20:59.314Z,2.79
2018-03-20T08:21:59.286Z,2.86
2018-03-20T08:22:59.257Z,2.83
2018-03-20T08:23:59.236Z,2.86
2018-03-20T08:24:59.203Z,2.83
2018-03-20T08:25:59.179Z,2.77
2018-03-20T08:26:59.151Z,2.95
2018-03-20T08:27:59.124Z,2.90
2018-03-20T08:28:59.097Z,2.89
2018-03-20T08:29:59.070Z,2.80
2018-03-20T08:30:59.049Z,2.86
2018-03-20T08:31:59.023Z,2.93
2018-03-20T08:32:58.989Z,2.89
2018-03-20T08:33:58.963Z,2.86
2018-03-20T08:34:58.934Z,2.87
2018-03-20T08:35:58.909Z,2.83
2018-03-20T08:36:58.880Z,2.86
2018-03-20T08:37:58.860Z,2.85
2018-03-20T08:38:58.826Z,2.89
2018-03-20T08:39:58.798Z,2.97
2018-03-20T08:40:58.776Z,2.87
2018-03-20T08:41:58.746Z,2.93
2018-03-20T08:42:58.722Z,2.95
2018-03-20T08:43:58.698Z,2.98
2018-03-20T08:44:58.665Z,2.93
2018-03-20T08:45:58.634Z,2.97
2018-03-20T08:46:58.614Z,3.00
2018-03-20T08:47:58.584Z,3.10
2018-03-20T08:48:58.558Z,3.10
2018-03-20T08:49:58.562Z,3.03
2018-03-20T08:50:58.502Z,3.07
2018-03-20T08:51:58.479Z,3.19
2018-03-20T08:52:58.455Z,3.25
2018-03-20T08:53:58.424Z,3.18
2018-03-20T08:54:58.394Z,3.31
2018-03-20T08:55:58.366Z,3.36
2018-03-20T08:56:59.048Z,3.47
2018-03-20T08:57:58.313Z,3.51
2018-03-20T08:58:58.301Z,3.63
2018-03-20T08:59:58.261Z,3.66
2018-03-20T09:00:58.233Z,3.88
2018-03-20T09:01:58.203Z,3.91
2018-03-20T09:02:58.187Z,3.96
2018-03-20T09:03:58.151Z,4.13
2018-03-20T09:04:58.130Z,4.34
2018-03-20T09:05:58.099Z,4.44
2018-03-20T09:06:58.074Z,4.50
2018-03-20T09:07:58.052Z,4.59
2018-03-20T09:08:58.022Z,4.53
2018-03-20T09:09:57.997Z,4.77
2018-03-20T09:10:57.971Z,4.86
2018-03-20T09:11:57.949Z,4.99
2018-03-20T09:12:57.918Z,5.11
2018-03-20T09:13:57.892Z,5.15
2018-03-20T09:14:57.869Z,5.50
2018-03-20T09:15:57.842Z,5.65
2018-03-20T09:16:57.813Z,5.93
2018-03-20T09:17:57.807Z,6.28
2018-03-20T09:18:57.769Z,6.56
2018-03-20T09:19:57.748Z,6.95
2018-03-20T09:20:57.717Z,7.43
2018-03-20T09:21:57.695Z,7.63
2018-03-20T09:22:57.667Z,8.00
2018-03-20T09:23:57.647Z,8.18
2018-03-20T09:24:57.627Z,8.31
2018-03-20T09:25:57.600Z,8.27
2018-03-20T09:26:57.572Z,8.38
2018-03-20T09:27:57.548Z,8.49
2018-03-20T09:28:57.527Z,8.74
2018-03-20T09:29:57.508Z,8.48
2018-03-20T09:30:57.488Z,8.34
2018-03-20T09:31:57.462Z,8.34
2018-03-20T09:32:57.440Z,8.60
2018-03-20T09:33:57.418Z,8.82
2018-03-20T09:34:57.393Z,9.03
2018-03-20T09:35:57.368Z,9.22
2018-03-20T09:36:57.349Z,9.44
2018-03-20T09:37:57.332Z,9.47
2018-03-20T09:38:57.316Z,9.56
2018-03-20T09:39:57.287Z,9.51
2018-03-20T09:40:57.269Z,9.82
2018-03-20T09:41:57.245Z,9.84
2018-03-20T09:42:57.226Z,9.92
2018-03-20T09:43:57.197Z,9.94
2018-03-20T09:44:57.178Z,9.92
2018-03-20T09:45:57.163Z,10.16
2018-03-20T09:46:57.135Z,10.16
2018-03-20T09:47:57.120Z,10.26
2018-03-20T09:48:57.107Z,10.31
2018-03-20T09:49:57.084Z,10.40
2018-03-20T09:50:57.059Z,10.51
2018-03-20T09:51:57.041Z,10.33
2018-03-20T09:52:57.028Z,10.10
2018-03-20T09:53:57.001Z,9.86
2018-03-20T09:54:56.983Z,9.89
2018-03-20T09:55:56.966Z,9.77
2018-03-20T09:56:56.951Z,9.92
2018-03-20T09:57:56.928Z,9.95
2018-03-20T09:58:56.906Z,9.94
2018-03-20T09:59:56.890Z,10.25
2018-03-20T10:00:56.875Z,10.35
2018-03-20T10:01:56.855Z,10.61
2018-03-20T10:02:56.835Z,10.63
2018-03-20T10:03:56.816Z,10.63
2018-03-20T10:04:56.811Z,10.41
2018-03-20T10:05:56.779Z,10.48
2018-03-20T10:06:56.762Z,10.53
2018-03-20T10:07:56.741Z,10.56
2018-03-20T10:08:56.724Z,10.56
2018-03-20T10:09:56.707Z,10.57
2018-03-20T10:10:56.686Z,10.49
2018-03-20T10:11:56.667Z,10.40
2018-03-20T10:12:56.662Z,10.48
2018-03-20T10:13:56.639Z,10.72
2018-03-20T10:14:56.612Z,10.71
2018-03-20T10:15:56.598Z,10.75
2018-03-20T10:16:56.584Z,10.92
2018-03-20T10:17:56.563Z,10.79
2018-03-20T10:18:56.550Z,10.99
2018-03-20T10:19:56.522Z,11.17
2018-03-20T10:20:56.507Z,11.18
2018-03-20T10:21:56.492Z,11.40
2018-03-20T10:22:56.471Z,11.60
2018-03-20T10:23:56.451Z,11.86
2018-03-20T10:24:56.468Z,11.90
2018-03-20T10:25:56.420Z,12.12
2018-03-20T10:26:56.402Z,12.17
2018-03-20T10:27:56.385Z,12.15
2018-03-20T10:28:56.368Z,12.24
2018-03-20T10:29:56.353Z,12.32
2018-03-20T10:30:56.337Z,12.12
2018-03-20T10:31:56.315Z,11.95
2018-03-20T10:32:56.298Z,12.17
2018-03-20T10:33:56.291Z,12.10
2018-03-20T10:34:56.264Z,12.21
2018-03-20T10:35:56.246Z,12.22
2018-03-20T10:36:56.228Z,12.29
2018-03-20T10:37:56.213Z,12.27
2018-03-20T10:38:56.195Z,12.42
2018-03-20T10:39:56.178Z,12.57
2018-03-20T10:40:56.161Z,12.42
2018-03-20T10:41:56.142Z,12.47
2018-03-20T10:42:56.128Z,12.82
2018-03-20T10:43:56.114Z,13.01
2018-03-20T10:44:56.095Z,13.12
2018-03-20T10:45:56.077Z,13.12
2018-03-20T10:46:56.061Z,13.25
2018-03-20T10:47:56.042Z,13.18
2018-03-20T10:48:56.026Z,13.37
2018-03-20T10:49:56.012Z,13.68
2018-03-20T10:50:55.991Z,13.67
2018-03-20T10:51:55.975Z,13.49
2018-03-20T10:52:55.960Z,13.53
2018-03-20T10:53:55.946Z,13.57
2018-03-20T10:54:55.931Z,13.74
2018-03-20T10:55:55.903Z,13.95
2018-03-20T10:56:55.897Z,13.62
2018-03-20T10:57:55.877Z,13.89
2018-03-20T10:58:55.863Z,13.97
2018-03-20T10:59:55.842Z,13.71
2018-03-20T11:00:55.828Z,13.56
2018-03-20T11:01:55.808Z,13.57
2018-03-20T11:02:55.790Z,13.62
2018-03-20T11:03:55.777Z,13.92
2018-03-20T11:04:55.761Z,14.22
2018-03-20T11:05:55.748Z,14.23
2018-03-20T11:06:55.735Z,14.44
2018-03-20T11:07:55.713Z,14.51
2018-03-20T11:08:55.700Z,14.48
2018-03-20T11:09:55.683Z,14.70
2018-03-20T11:10:55.659Z,14.37
2018-03-20T11:11:55.651Z,13.99
2018-03-20T11:12:55.635Z,13.67
2018-03-20T11:13:55.617Z,13.74
2018-03-20T11:14:55.602Z,13.96
2018-03-20T11:15:55.590Z,14.07
2018-03-20T11:16:55.572Z,14.17
2018-03-20T11:17:55.555Z,14.41
2018-03-20T11:18:55.540Z,14.79
2018-03-20T11:19:55.526Z,14.94
2018-03-20T11:20:55.514Z,14.69
2018-03-20T11:21:55.496Z,14.72
2018-03-20T11:22:55.477Z,14.85
2018-03-20T11:23:55.467Z,15.17
2018-03-20T11:24:55.447Z,15.14
2018-03-20T11:25:55.431Z,15.49
2018-03-20T11:26:55.411Z,15.64
2018-03-20T11:27:55.399Z,15.57
2018-03-20T11:28:55.386Z,15.33
2018-03-20T11:29:55.409Z,15.36
2018-03-20T11:30:55.354Z,15.29
2018-03-20T11:31:55.341Z,15.19
2018-03-20T11:32:55.325Z,14.73
2018-03-20T11:33:55.309Z,14.88
2018-03-20T11:34:55.294Z,14.94
2018-03-20T11:35:55.282Z,15.03
2018-03-20T11:36:55.266Z,15.03
2018-03-20T11:37:55.255Z,15.39
2018-03-20T11:38:55.245Z,15.61
2018-03-20T11:39:55.220Z,15.77
2018-03-20T11:40:55.202Z,15.88
2018-03-20T11:41:55.194Z,15.86
2018-03-20T11:42:55.175Z,15.84
2018-03-20T11:43:55.172Z,15.72
2018-03-20T11:44:55.148Z,15.76
2018-03-20T11:45:55.131Z,15.67
2018-03-20T11:46:55.117Z,15.54
2018-03-20T11:47:55.104Z,15.54
2018-03-20T11:48:55.086Z,15.40
2018-03-20T11:49:55.075Z,15.39
2018-03-20T11:50:55.061Z,15.33
2018-03-20T11:51:55.044Z,15.28
2018-03-20T11:52:55.025Z,15.37
2018-03-20T11:53:55.016Z,15.27
2018-03-20T11:54:55.019Z,15.51
2018-03-20T11:55:54.983Z,15.70
2018-03-20T11:56:54.972Z,15.75
2018-03-20T11:57:54.958Z,15.58
2018-03-20T11:58:54.935Z,15.49
2018-03-20T11:59:54.927Z,15.70
2018-03-20T12:00:54.911Z,15.77
2018-03-20T12:01:54.900Z,15.88
2018-03-20T12:02:54.891Z,16.00
2018-03-20T12:03:54.871Z,16.24
2018-03-20T12:04:54.854Z,16.13
2018-03-20T12:05:54.839Z,15.88
2018-03-20T12:06:54.825Z,16.02
2018-03-20T12:07:54.813Z,16.49
2018-03-20T12:08:54.797Z,16.38
2018-03-20T12:09:54.787Z,16.35
2018-03-20T12:10:54.769Z,16.74
2018-03-20T12:11:54.755Z,16.72
2018-03-20T12:12:54.742Z,16.41
2018-03-20T12:13:54.741Z,16.15
2018-03-20T12:14:54.715Z,16.28
2018-03-20T12:15:54.700Z,16.33
2018-03-20T12:16:54.686Z,16.64
2018-03-20T12:17:54.675Z,16.89
2018-03-20T12:18:54.659Z,16.93
2018-03-20T12:19:54.653Z,17.09
2018-03-20T12:20:54.633Z,17.16
2018-03-20T12:21:54.633Z,17.36
2018-03-20T12:22:54.605Z,17.41
2018-03-20T12:23:54.587Z,17.31
2018-03-20T12:24:54.577Z,17.23
2018-03-20T12:25:54.565Z,16.79
2018-03-20T12:26:54.555Z,16.68
2018-03-20T12:27:54.544Z,16.71
2018-03-20T12:28:54.526Z,16.75
2018-03-20T12:29:54.521Z,16.90
2018-03-20T12:30:54.500Z,16.76
2018-03-20T12:31:54.493Z,16.86
2018-03-20T12:32:54.476Z,16.69
2018-03-20T12:33:54.461Z,17.04
2018-03-20T12:34:54.454Z,17.51
2018-03-20T12:35:54.435Z,17.67
2018-03-20T12:36:54.429Z,17.63
2018-03-20T12:37:54.414Z,17.54
2018-03-20T12:38:54.392Z,17.74
2018-03-20T12:39:54.382Z,18.00
2018-03-20T12:40:54.370Z,18.19
2018-03-20T12:41:54.361Z,17.95
2018-03-20T12:42:54.346Z,18.19
2018-03-20T12:43:54.334Z,18.56
2018-03-20T12:44:54.321Z,18.58
2018-03-20T12:45:54.322Z,18.60
2018-03-20T12:46:54.297Z,18.55
2018-03-20T12:47:54.285Z,18.66
2018-03-20T12:48:54.279Z,18.29
2018-03-20T12:49:54.261Z,18.73
2018-03-20T12:50:54.249Z,18.60
2018-03-20T12:51:54.233Z,18.89
2018-03-20T12:52:54.232Z,18.60
2018-03-20T12:53:54.213Z,18.98
2018-03-20T12:54:54.196Z,18.80
2018-03-20T12:55:54.189Z,18.60
2018-03-20T12:56:54.179Z,18.38
2018-03-20T12:57:54.167Z,18.38
2018-03-20T12:58:54.153Z,18.34
2018-03-20T12:59:54.145Z,18.49
2018-03-20T13:00:54.131Z,18.59
2018-03-20T13:01:54.119Z,18.47
2018-03-20T13:02:54.108Z,18.70
2018-03-20T13:03:54.099Z,18.90